Time;durP1;ratioP1;P1;durP2;ratioP2;P2;SDS_P1;SDS_P2;PMS_P1;PMS_P2;Temp;Humidity;BMP_temperature;BMP_pressure;BME280_temperature;BME280_humidity;BME280_pressure;Samples;Min_cycle;Max_cycle;Signal;HPM_P1;HPM_P2
2023/03/04 00:02:08;;;;;;;13.38;2.17;;;;;;;6.82;85.86;102586.00;4961232;28;20056;-67
2023/03/04 00:04:35;;;;;;;18.30;2.53;;;;;;;6.80;85.51;102586.97;4988863;28;20133;-67
2023/03/04 00:07:01;;;;;;;14.98;2.13;;;;;;;6.70;85.68;102582.25;4964925;28;20551;-67
2023/03/04 00:09:28;;;;;;;9.35;2.25;;;;;;;6.64;85.65;102582.53;4972311;28;20054;-66
2023/03/04 00:11:54;;;;;;;10.93;2.35;;;;;;;6.69;86.44;102580.56;4962265;28;20522;-66
2023/03/04 00:14:20;;;;;;;10.30;2.00;;;;;;;6.65;87.46;102578.19;4964472;28;20492;-67
2023/03/04 00:16:48;;;;;;;12.98;1.50;;;;;;;6.67;86.85;102587.63;4972931;28;20055;-67
2023/03/04 00:19:14;;;;;;;13.15;2.22;;;;;;;6.65;87.30;102586.84;4963561;28;20504;-66
2023/03/04 00:21:41;;;;;;;10.68;2.28;;;;;;;6.64;87.64;102585.16;4962958;28;20558;-67
2023/03/04 00:24:07;;;;;;;16.15;4.40;;;;;;;6.64;87.19;102589.53;4965824;28;20054;-65
2023/03/04 00:26:33;;;;;;;13.18;2.30;;;;;;;6.64;87.91;102584.31;4966304;28;20436;-66
2023/03/04 00:29:00;;;;;;;11.68;2.38;;;;;;;6.65;88.47;102583.41;4976756;28;20648;-65
2023/03/04 00:31:26;;;;;;;11.48;2.38;;;;;;;6.62;88.17;102587.00;4977160;28;20054;-66
2023/03/04 00:33:53;;;;;;;21.35;2.50;;;;;;;6.61;89.09;102585.31;4986253;28;20051;-67
2023/03/04 00:36:19;;;;;;;12.63;1.73;;;;;;;6.61;88.00;102580.09;4978567;28;20458;-67
2023/03/04 00:38:45;;;;;;;12.32;2.00;;;;;;;6.64;87.77;102574.72;4983530;28;20050;-65
2023/03/04 00:41:12;;;;;;;14.07;3.10;;;;;;;6.60;87.37;102581.00;4978734;28;20065;-66
2023/03/04 00:43:38;;;;;;;9.60;1.90;;;;;;;6.54;89.58;102570.91;4980474;28;20524;-67
2023/03/04 00:46:05;;;;;;;16.30;1.98;;;;;;;6.59;88.84;102581.13;4985357;28;20050;-68
2023/03/04 00:48:32;;;;;;;8.95;1.80;;;;;;;6.58;88.57;102569.81;4975594;28;20141;-67
2023/03/04 00:50:58;;;;;;;7.78;1.65;;;;;;;6.65;87.90;102575.59;4985681;28;20053;-67
2023/03/04 00:53:25;;;;;;;16.30;2.63;;;;;;;6.63;88.59;102574.81;4975164;28;20058;-66
2023/03/04 00:55:51;;;;;;;14.88;2.20;;;;;;;6.66;89.26;102580.69;4984542;28;20058;-67
2023/03/04 00:58:18;;;;;;;12.18;1.70;;;;;;;6.67;88.68;102581.56;4979022;28;20058;-66
2023/03/04 01:00:44;;;;;;;13.73;2.13;;;;;;;6.68;89.37;102583.22;4982605;28;20061;-67
2023/03/04 01:03:10;;;;;;;11.88;1.58;;;;;;;6.67;89.77;102576.34;4987891;28;20577;-66
2023/03/04 01:05:37;;;;;;;14.35;2.22;;;;;;;6.63;89.27;102575.66;4972000;28;20050;-67
2023/03/04 01:08:04;;;;;;;14.20;2.00;;;;;;;6.62;90.16;102575.72;4977110;28;20057;-66
2023/03/04 01:10:31;;;;;;;13.18;2.15;;;;;;;6.64;90.72;102581.72;4978946;28;20050;-66
2023/03/04 01:12:57;;;;;;;9.20;1.95;;;;;;;6.60;90.69;102575.78;4975111;28;20090;-67
2023/03/04 01:15:24;;;;;;;13.27;2.17;;;;;;;6.59;90.90;102589.78;4983417;28;20054;-67
2023/03/04 01:17:50;;;;;;;7.18;1.70;;;;;;;6.62;90.45;102579.16;4976850;28;20056;-66
2023/03/04 01:20:17;;;;;;;9.85;1.55;;;;;;;6.64;89.85;102577.31;4980660;28;20058;-67
2023/03/04 01:22:43;;;;;;;13.57;2.05;;;;;;;6.65;90.54;102578.19;4968555;28;20085;-67
2023/03/04 01:25:10;;;;;;;11.60;1.92;;;;;;;6.62;91.35;102579.16;4977186;28;20061;-67
2023/03/04 01:27:36;;;;;;;12.23;2.00;;;;;;;6.57;91.04;102570.75;4976236;28;20047;-67
2023/03/04 01:30:03;;;;;;;9.07;1.90;;;;;;;6.54;91.69;102570.91;5000255;28;20050;-68
2023/03/04 01:32:30;;;;;;;14.50;1.92;;;;;;;6.56;92.72;102563.00;4973881;28;20054;-68
2023/03/04 01:34:56;;;;;;;8.85;1.67;;;;;;;6.56;92.21;102563.84;4973560;28;20050;-69
2023/03/04 01:37:23;;;;;;;18.05;2.13;;;;;;;6.54;93.34;102563.06;4983330;28;20054;-68
2023/03/04 01:39:49;;;;;;;11.93;1.40;;;;;;;6.59;92.96;102561.09;4966633;28;20145;-68
2023/03/04 01:42:21;;;;;;;8.75;2.45;;;;;;;6.61;91.77;102558.41;4971038;28;20055;-68
2023/03/04 01:44:50;;;;;;;10.00;1.95;;;;;;;6.58;93.34;102562.00;4976428;28;20050;-67
2023/03/04 01:47:18;;;;;;;11.35;1.67;;;;;;;6.57;91.65;102556.88;4976478;28;20051;-68
2023/03/04 01:49:49;;;;;;;11.18;1.85;;;;;;;6.62;92.11;102554.88;4982497;28;20050;-67
2023/03/04 01:52:16;;;;;;;14.23;1.77;;;;;;;6.56;92.17;102547.34;4975151;28;20098;-68
2023/03/04 01:54:42;;;;;;;13.10;1.67;;;;;;;6.57;91.99;102552.50;4978805;28;20054;-67
2023/03/04 01:57:17;;;;;;;10.50;1.73;;;;;;;6.60;93.32;102551.50;4970870;28;20055;-68
2023/03/04 01:59:45;;;;;;;5.95;1.33;;;;;;;6.60;91.77;102548.88;4977027;28;20154;-68
2023/03/04 02:02:13;;;;;;;14.38;2.00;;;;;;;6.60;92.58;102549.72;4967096;28;20080;-68
2023/03/04 02:04:41;;;;;;;8.88;1.50;;;;;;;6.57;92.04;102534.25;4981954;28;20058;-67
2023/03/04 02:07:08;;;;;;;12.65;1.40;;;;;;;6.60;92.50;102533.25;4984279;28;20085;-68
2023/03/04 02:09:35;;;;;;;8.65;1.38;;;;;;;6.60;92.45;102530.63;4973403;28;20058;-68
2023/03/04 02:12:02;;;;;;;9.65;1.90;;;;;;;6.59;92.50;102529.81;4977161;28;20262;-68
2023/03/04 02:14:28;;;;;;;12.40;1.40;;;;;;;6.59;92.46;102527.19;4961714;28;20133;-68
2023/03/04 02:16:55;;;;;;;11.52;1.80;;;;;;;6.61;93.01;102527.13;4958988;28;20499;-68
2023/03/04 02:19:44;;;;;;;8.70;1.70;;;;;;;6.53;92.01;102527.50;4962165;28;20050;-69
2023/03/04 02:22:10;;;;;;;12.80;1.88;;;;;;;6.53;92.24;102525.75;4965783;28;20058;-68
2023/03/04 02:24:48;;;;;;;16.40;2.80;;;;;;;6.56;92.99;102521.28;4963137;28;20060;-68
2023/03/04 02:27:15;;;;;;;13.88;1.70;;;;;;;6.56;92.05;102527.34;4967540;28;20057;-67
2023/03/04 02:29:41;;;;;;;8.25;1.30;;;;;;;6.56;91.63;102521.28;4963746;28;20054;-67
2023/03/04 02:32:11;;;;;;;15.25;1.98;;;;;;;6.62;91.18;102516.59;4960221;28;20450;-66
2023/03/04 02:34:45;;;;;;;8.93;1.73;;;;;;;6.59;92.09;102516.75;4960451;28;20099;-66
2023/03/04 02:37:12;;;;;;;7.43;1.42;;;;;;;6.54;91.49;102523.97;4957543;28;20062;-67
2023/03/04 02:39:41;;;;;;;13.13;2.45;;;;;;;6.58;91.23;102516.84;4969430;28;20050;-67
2023/03/04 02:42:08;;;;;;;10.55;1.38;;;;;;;6.57;91.37;102515.16;4959019;28;20058;-67
2023/03/04 02:44:40;;;;;;;11.50;1.98;;;;;;;6.53;91.35;102517.09;4964589;28;20054;-67
2023/03/04 02:47:10;;;;;;;6.90;1.27;;;;;;;6.51;91.79;102504.13;4965382;28;20082;-67
2023/03/04 02:49:38;;;;;;;11.25;1.42;;;;;;;6.53;91.17;102504.03;4964503;28;20050;-67
2023/03/04 02:52:19;;;;;;;11.20;1.20;;;;;;;6.53;91.25;102510.09;4969772;28;20058;-68
2023/03/04 02:54:45;;;;;;;11.80;1.40;;;;;;;6.47;90.48;102507.81;4960455;28;20051;-67
2023/03/04 02:57:13;;;;;;;10.50;1.45;;;;;;;6.50;90.69;102504.19;4974783;28;20058;-67
2023/03/04 02:59:41;;;;;;;6.13;1.35;;;;;;;6.46;89.72;102497.44;4968581;28;20058;-67
2023/03/04 03:02:07;;;;;;;11.10;1.63;;;;;;;6.45;89.59;102499.22;4976159;28;20105;-67
2023/03/04 03:04:37;;;;;;;8.30;1.10;;;;;;;6.42;87.41;102493.31;4965136;28;20113;-68
2023/03/04 03:07:04;;;;;;;11.65;1.67;;;;;;;6.40;88.22;102496.00;4966320;28;20082;-66
2023/03/04 03:09:31;;;;;;;17.33;2.25;;;;;;;6.41;88.76;102500.31;4968142;28;20077;-67
2023/03/04 03:11:57;;;;;;;16.35;1.83;;;;;;;6.40;88.87;102488.16;4956155;28;20055;-67
2023/03/04 03:14:24;;;;;;;14.60;1.65;;;;;;;6.41;88.12;102482.06;4961659;28;20050;-67
2023/03/04 03:16:50;;;;;;;8.52;1.20;;;;;;;6.45;89.29;102480.09;4960271;28;20117;-67
2023/03/04 03:19:16;;;;;;;8.27;1.13;;;;;;;6.45;89.32;102478.38;4967185;28;20059;-67
2023/03/04 03:21:43;;;;;;;8.20;1.25;;;;;;;6.44;88.79;102475.84;4974284;28;20707;-69
2023/03/04 03:24:09;;;;;;;9.45;1.23;;;;;;;6.48;89.58;102475.59;4974488;28;20051;-67
2023/03/04 03:26:36;;;;;;;8.10;1.60;;;;;;;6.46;88.87;102477.44;4962584;28;20127;-67
2023/03/04 03:29:02;;;;;;;15.00;2.25;;;;;;;6.48;89.79;102469.53;4963025;28;20054;-67
2023/03/04 03:31:28;;;;;;;13.27;2.10;;;;;;;6.44;90.10;102462.78;4970462;28;20569;-67
2023/03/04 03:33:55;;;;;;;10.43;1.80;;;;;;;6.43;90.43;102463.72;4970137;28;20054;-66
2023/03/04 03:36:21;;;;;;;9.20;1.45;;;;;;;6.43;90.77;102464.56;4964265;28;20046;-67
2023/03/04 03:38:48;;;;;;;14.82;1.88;;;;;;;6.42;90.42;102460.25;4969931;28;20061;-67
2023/03/04 03:41:14;;;;;;;11.52;1.55;;;;;;;6.40;91.59;102456.91;4957176;28;20058;-67
2023/03/04 03:43:41;;;;;;;10.55;1.30;;;;;;;6.38;92.85;102463.94;4978386;28;20106;-67
2023/03/04 03:46:07;;;;;;;9.68;1.88;;;;;;;6.33;92.67;102464.19;4963596;28;20059;-67
2023/03/04 03:48:34;;;;;;;12.90;2.00;;;;;;;6.35;93.27;102466.72;4967295;28;20058;-67
2023/03/04 03:51:00;;;;;;;10.80;1.65;;;;;;;6.39;93.06;102472.59;4967999;28;20058;-67
2023/03/04 03:53:27;;;;;;;11.52;1.63;;;;;;;6.42;92.73;102467.25;4969957;28;20583;-67
2023/03/04 03:55:53;;;;;;;12.95;1.98;;;;;;;6.47;92.00;102473.91;4962640;28;20051;-67
2023/03/04 03:58:20;;;;;;;5.13;1.30;;;;;;;6.45;92.17;102470.53;4967236;28;20729;-68
2023/03/04 04:00:47;;;;;;;7.63;1.40;;;;;;;6.44;92.99;102476.66;4967275;28;20047;-67
2023/03/04 04:03:14;;;;;;;12.48;1.75;;;;;;;6.49;91.91;102477.28;4962914;28;20132;-67
2023/03/04 04:05:41;;;;;;;8.53;1.10;;;;;;;6.50;92.34;102473.75;4972344;28;20574;-67
2023/03/04 04:08:12;;;;;;;13.25;1.95;;;;;;;6.47;92.60;102473.09;4958789;28;20077;-67
2023/03/04 04:10:39;;;;;;;11.10;1.58;;;;;;;6.42;92.85;102480.28;4959361;28;20427;-67
2023/03/04 04:13:06;;;;;;;17.98;1.85;;;;;;;6.42;92.79;102475.06;4975384;28;20061;-67
2023/03/04 04:15:32;;;;;;;14.10;1.60;;;;;;;6.44;92.82;102471.44;4965922;28;20051;-67
2023/03/04 04:17:58;;;;;;;11.80;1.63;;;;;;;6.40;92.42;102471.69;4970948;28;20047;-67
2023/03/04 04:20:25;;;;;;;11.98;1.80;;;;;;;6.41;92.89;102475.97;4961395;28;20858;-67
2023/03/04 04:22:51;;;;;;;11.57;1.20;;;;;;;6.41;93.36;102473.38;4958713;28;20265;-67
2023/03/04 04:25:18;;;;;;;16.48;2.22;;;;;;;6.42;94.25;102475.06;4960745;28;20054;-67
2023/03/04 04:27:44;;;;;;;11.43;1.73;;;;;;;6.41;94.87;102478.59;4970261;28;20057;-67
2023/03/04 04:30:11;;;;;;;11.00;1.77;;;;;;;6.40;94.52;102471.69;4976247;28;20375;-67
2023/03/04 04:32:37;;;;;;;13.10;1.77;;;;;;;6.37;94.40;102470.09;4971355;28;20050;-67
2023/03/04 04:35:04;;;;;;;9.27;2.17;;;;;;;6.39;95.69;102470.00;4963114;28;20501;-67
2023/03/04 04:37:31;;;;;;;10.60;1.45;;;;;;;6.34;94.46;102473.69;4968299;28;20051;-67
2023/03/04 04:39:57;;;;;;;9.15;1.60;;;;;;;6.38;94.61;102476.16;4974508;28;20496;-66
2023/03/04 04:42:24;;;;;;;16.85;1.70;;;;;;;6.40;95.60;102471.69;4961989;28;20408;-67
2023/03/04 04:44:51;;;;;;;9.82;1.50;;;;;;;6.36;96.18;102475.38;4969050;28;20526;-68
2023/03/04 04:47:17;;;;;;;4.45;0.90;;;;;;;6.35;94.97;102479.75;4972176;28;20117;-66
2023/03/04 04:49:44;;;;;;;7.07;1.40;;;;;;;6.36;96.53;102476.22;4959784;28;20109;-66
2023/03/04 04:52:10;;;;;;;13.10;1.45;;;;;;;6.37;96.31;102477.94;4969239;28;20047;-68
2023/03/04 04:54:37;;;;;;;8.90;1.60;;;;;;;6.38;97.39;102482.19;4973779;28;20070;-67
2023/03/04 04:57:03;;;;;;;13.15;1.30;;;;;;;6.34;98.18;102473.69;4976531;28;20050;-67
2023/03/04 04:59:30;;;;;;;8.48;1.35;;;;;;;6.40;98.64;102482.97;4974998;28;20055;-67
2023/03/04 05:01:56;;;;;;;10.15;1.35;;;;;;;6.37;98.45;102475.31;4973137;28;20054;-67
2023/03/04 05:04:23;;;;;;;7.18;1.10;;;;;;;6.28;97.42;102478.38;4964508;28;20676;-68
2023/03/04 05:06:50;;;;;;;7.30;1.60;;;;;;;6.27;98.28;102476.69;4961655;28;20070;-67
2023/03/04 05:09:16;;;;;;;9.63;1.90;;;;;;;6.25;99.54;102473.31;4972787;28;20055;-66
2023/03/04 05:11:42;;;;;;;6.00;1.60;;;;;;;6.24;99.60;102475.09;4965534;28;20047;-67
2023/03/04 05:14:09;;;;;;;8.55;1.80;;;;;;;6.24;99.30;102469.88;4971411;28;20403;-67
2023/03/04 05:16:35;;;;;;;11.27;1.33;;;;;;;6.23;99.98;102477.75;4964534;28;20058;-66
2023/03/04 05:19:02;;;;;;;6.05;1.30;;;;;;;6.18;100.00;102475.41;4965017;28;20424;-67
2023/03/04 05:21:28;;;;;;;8.07;1.85;;;;;;;6.24;100.00;102475.09;4970358;28;20588;-67
2023/03/04 05:23:55;;;;;;;10.95;1.40;;;;;;;6.23;100.00;102478.59;4964671;28;20054;-67
2023/03/04 05:26:21;;;;;;;10.20;1.65;;;;;;;6.24;100.00;102475.09;4973954;28;20050;-68
2023/03/04 05:28:48;;;;;;;6.75;0.90;;;;;;;6.30;100.00;102479.97;4965592;28;20059;-66
2023/03/04 05:31:15;;;;;;;6.28;1.05;;;;;;;6.31;100.00;102481.69;4974138;28;20152;-66
2023/03/04 05:33:41;;;;;;;6.72;1.23;;;;;;;6.30;100.00;102482.59;4964870;28;20065;-67
2023/03/04 05:36:09;;;;;;;9.32;1.48;;;;;;;6.33;100.00;102473.75;4974846;28;20043;-67
2023/03/04 05:38:35;;;;;;;8.30;2.28;;;;;;;6.32;100.00;102465.09;4975624;28;20054;-67
2023/03/04 05:41:05;;;;;;;8.10;1.35;;;;;;;6.35;100.00;102471.94;4973601;28;20050;-67
2023/03/04 05:43:34;;;;;;;10.40;1.77;;;;;;;6.38;100.00;102476.16;4969715;28;20101;-67
2023/03/04 05:46:02;;;;;;;9.25;1.40;;;;;;;6.38;100.00;102482.19;4953579;28;20046;-66
2023/03/04 05:48:29;;;;;;;12.38;1.40;;;;;;;6.37;100.00;102482.28;4970476;28;20559;-67
2023/03/04 05:50:57;;;;;;;8.27;1.52;;;;;;;6.36;100.00;102481.44;4971713;28;20054;-67
2023/03/04 05:53:24;;;;;;;;;;;;;;;6.39;100.00;102485.63;4974361;28;20519;-66
2023/03/04 05:55:51;;;;;;;7.38;1.10;;;;;;;6.35;100.00;102490.19;4968601;28;19928;-69
2023/03/04 05:58:18;;;;;;;6.13;1.30;;;;;;;6.34;100.00;102486.72;4978343;28;20057;-66
2023/03/04 06:00:45;;;;;;;10.80;1.40;;;;;;;6.34;100.00;102486.72;4964951;28;20522;-67
2023/03/04 06:03:20;;;;;;;6.07;1.20;;;;;;;6.38;100.00;102487.41;4965486;28;20050;-67
2023/03/04 06:05:47;;;;;;;8.55;1.33;;;;;;;6.31;100.00;102486.03;4971823;28;20101;-67
2023/03/04 06:08:14;;;;;;;7.95;1.40;;;;;;;6.29;100.00;102491.34;4963203;28;20057;-66
2023/03/04 06:10:41;;;;;;;5.03;1.30;;;;;;;6.29;100.00;102493.94;4972239;28;20054;-66
2023/03/04 06:13:08;;;;;;;6.40;1.30;;;;;;;6.26;100.00;102482.84;4965083;28;20054;-68
2023/03/04 06:15:36;;;;;;;9.98;1.00;;;;;;;6.28;100.00;102481.81;4970667;28;20052;-66
2023/03/04 06:18:02;;;;;;;6.88;1.38;;;;;;;6.24;100.00;102484.66;4970406;28;20054;-67
2023/03/04 06:20:29;;;;;;;7.25;1.35;;;;;;;6.25;100.00;102487.22;4966400;28;20047;-66
2023/03/04 06:22:55;;;;;;;6.25;1.33;;;;;;;6.24;100.00;102484.66;4974210;28;20042;-66
2023/03/04 06:25:22;;;;;;;6.50;1.35;;;;;;;6.22;100.00;102487.34;4960740;28;20065;-67
2023/03/04 06:27:49;;;;;;;8.18;1.35;;;;;;;6.20;100.00;102485.75;4966757;28;20138;-67
2023/03/04 06:30:17;;;;;;;8.90;1.50;;;;;;;6.22;100.00;102492.56;4981529;28;20057;-67
2023/03/04 06:32:44;;;;;;;8.02;1.65;;;;;;;6.19;100.00;102491.88;4981988;28;20046;-66
2023/03/04 06:35:11;;;;;;;9.32;1.45;;;;;;;6.21;100.00;102492.63;4969350;28;20282;-67
2023/03/04 06:37:38;;;;;;;12.57;1.77;;;;;;;6.19;100.00;102494.47;4962064;28;20134;-66
2023/03/04 06:40:06;;;;;;;8.55;1.42;;;;;;;6.22;100.00;102491.72;4964093;28;20500;-67
2023/03/04 06:42:33;;;;;;;8.07;1.05;;;;;;;6.19;100.00;102481.44;4957427;28;20058;-66
2023/03/04 06:45:00;;;;;;;4.38;1.15;;;;;;;6.16;100.00;102492.88;4968911;28;20465;-67
2023/03/04 06:47:27;;;;;;;8.90;1.50;;;;;;;6.18;100.00;102496.25;4977584;28;20050;-67
2023/03/04 06:49:53;;;;;;;11.55;1.70;;;;;;;6.21;100.00;102498.69;4976141;28;20676;-68
2023/03/04 06:52:20;;;;;;;5.47;1.40;;;;;;;6.19;100.00;102497.91;4969783;28;20066;-66
2023/03/04 06:54:46;;;;;;;8.15;1.25;;;;;;;6.19;100.00;102495.31;4957284;28;20057;-67
2023/03/04 06:57:13;;;;;;;8.98;1.63;;;;;;;6.18;100.00;102485.81;4975404;28;20050;-66
2023/03/04 06:59:39;;;;;;;13.70;1.85;;;;;;;6.18;100.00;102492.81;4962165;28;20054;-66
2023/03/04 07:02:09;;;;;;;8.95;1.80;;;;;;;6.23;100.00;102498.59;4968978;28;20419;-67
2023/03/04 07:04:35;;;;;;;7.75;1.48;;;;;;;6.20;100.00;102506.59;4964961;28;20051;-67
2023/03/04 07:07:01;;;;;;;13.43;2.20;;;;;;;6.16;100.00;102500.69;4969775;28;20046;-68
2023/03/04 07:09:28;;;;;;;8.48;1.30;;;;;;;6.14;100.00;102508.56;4965027;28;20482;-67
2023/03/04 07:11:55;;;;;;;4.80;1.15;;;;;;;6.19;100.00;102497.06;4964411;28;20491;-67
2023/03/04 07:14:21;;;;;;;9.65;1.27;;;;;;;6.20;100.00;102504.81;4973137;28;20060;-68
2023/03/04 07:16:49;;;;;;;7.53;1.13;;;;;;;6.21;100.00;102503.88;4963133;28;20043;-66
2023/03/04 07:19:16;;;;;;;8.45;1.77;;;;;;;6.21;100.00;102509.09;4977182;28;20048;-66
2023/03/04 07:21:42;;;;;;;8.13;1.42;;;;;;;6.20;100.00;102511.81;4980770;28;20078;-66
2023/03/04 07:24:09;;;;;;;12.85;2.15;;;;;;;6.17;100.00;102502.34;4972405;28;20051;-66
2023/03/04 07:26:37;;;;;;;9.43;1.80;;;;;;;6.17;100.00;102506.72;4967723;28;20065;-66
2023/03/04 07:29:04;;;;;;;4.70;1.42;;;;;;;6.17;100.00;102509.34;4961390;28;20519;-66
2023/03/04 07:31:33;;;;;;;6.65;1.40;;;;;;;6.16;100.00;102513.72;4976010;28;20547;-66
2023/03/04 07:34:09;;;;;;;6.88;1.08;;;;;;;6.13;100.00;102514.72;4962058;28;20043;-68
2023/03/04 07:36:35;;;;;;;9.75;1.52;;;;;;;6.13;100.00;102514.72;4960939;28;20055;-67
2023/03/04 07:39:03;;;;;;;11.15;1.65;;;;;;;6.14;100.00;102528.59;4966021;28;20054;-67
2023/03/04 07:41:30;;;;;;;9.63;1.95;;;;;;;6.14;100.00;102519.00;4971626;28;20050;-66
2023/03/04 07:43:57;;;;;;;14.80;1.80;;;;;;;6.04;100.00;102516.94;4968969;28;20054;-67
2023/03/04 07:46:24;;;;;;;14.55;2.05;;;;;;;6.04;100.00;102517.78;4970191;28;20415;-66
2023/03/04 07:48:51;;;;;;;6.35;1.13;;;;;;;6.04;100.00;102516.94;4973464;28;20157;-66
2023/03/04 07:51:23;;;;;;;6.15;1.10;;;;;;;6.07;100.00;102516.78;4966224;28;20082;-66
2023/03/04 07:53:52;;;;;;;5.65;2.00;;;;;;;6.09;100.00;102512.31;4981347;28;20061;-66
2023/03/04 07:56:22;;;;;;;4.90;1.27;;;;;;;6.07;100.00;102517.59;4966507;28;20372;-66
2023/03/04 07:58:48;;;;;;;8.80;1.75;;;;;;;6.11;100.00;102516.53;4977186;28;20078;-66
2023/03/04 08:01:18;;;;;;;8.60;1.70;;;;;;;6.22;100.00;102523.00;4971395;28;20105;-66
2023/03/04 08:03:44;;;;;;;6.88;1.50;;;;;;;6.25;100.00;102517.63;4961107;28;20074;-67
2023/03/04 08:06:13;;;;;;;12.98;1.70;;;;;;;6.36;100.00;102522.31;4978712;28;21155;-67
2023/03/04 08:08:40;;;;;;;;;;;;;;;6.47;100.00;102523.44;4962121;28;20385;-67
2023/03/04 08:11:09;;;;;;;10.98;1.67;;;;;;;6.48;100.00;102527.72;4966385;28;19926;-67
2023/03/04 08:13:36;;;;;;;8.02;1.67;;;;;;;6.48;100.00;102524.28;4961255;28;20484;-67
2023/03/04 08:16:04;;;;;;;6.55;1.60;;;;;;;6.53;100.00;102527.50;4976328;28;20684;-66
2023/03/04 08:18:30;;;;;;;10.13;1.50;;;;;;;6.58;100.00;102522.06;4962695;28;20054;-66
2023/03/04 08:20:57;;;;;;;8.55;1.77;;;;;;;6.67;100.00;102530.25;4960327;28;20474;-67
2023/03/04 08:23:24;;;;;;;5.60;1.23;;;;;;;6.63;100.00;102522.66;4967487;28;20063;-66
2023/03/04 08:25:50;;;;;;;9.30;1.63;;;;;;;6.61;100.00;102530.56;4961896;28;20051;-66
2023/03/04 08:28:17;;;;;;;7.65;1.20;;;;;;;6.59;100.00;102531.56;4971454;28;20050;-67
2023/03/04 08:30:44;;;;;;;7.93;1.30;;;;;;;6.59;100.00;102531.56;4955236;28;20047;-65
2023/03/04 08:33:10;;;;;;;10.40;1.73;;;;;;;6.53;100.00;102532.72;4960532;28;20050;-66
2023/03/04 08:35:38;;;;;;;7.03;1.40;;;;;;;6.58;100.00;102532.47;4970102;28;20073;-67
2023/03/04 08:38:06;;;;;;;4.43;1.20;;;;;;;6.63;100.00;102531.31;4974030;28;20054;-66
2023/03/04 08:40:32;;;;;;;4.57;1.45;;;;;;;6.60;100.00;102530.63;4972593;28;20061;-68
2023/03/04 08:42:59;;;;;;;6.28;1.67;;;;;;;6.68;100.00;102531.94;4966930;28;20059;-67
2023/03/04 08:45:26;;;;;;;9.05;1.60;;;;;;;6.76;100.00;102526.31;4971462;28;20090;-68
2023/03/04 08:47:53;;;;;;;9.02;1.95;;;;;;;6.82;100.00;102532.97;4968247;28;20104;-67
2023/03/04 08:50:20;;;;;;;5.50;1.40;;;;;;;6.85;100.00;102532.81;4982740;28;20050;-67
2023/03/04 08:52:48;;;;;;;7.13;2.22;;;;;;;6.91;100.00;102522.06;4970703;28;20059;-66
2023/03/04 08:55:14;;;;;;;13.15;2.17;;;;;;;6.92;100.00;102524.59;4964897;28;20051;-66
2023/03/04 08:57:41;;;;;;;8.88;1.58;;;;;;;7.01;100.00;102527.63;4981530;28;20093;-66
2023/03/04 09:00:09;;;;;;;7.05;1.67;;;;;;;7.06;100.00;102523.88;4963076;28;20503;-66
2023/03/04 09:02:35;;;;;;;6.38;1.85;;;;;;;6.99;100.00;102529.50;4984817;28;20054;-66
2023/03/04 09:05:01;;;;;;;5.55;1.60;;;;;;;7.06;100.00;102530.84;4968754;28;20046;-66
2023/03/04 09:07:28;;;;;;;7.53;1.63;;;;;;;7.08;100.00;102529.00;4975783;28;20158;-66
2023/03/04 09:09:55;;;;;;;5.63;1.50;;;;;;;7.12;100.00;102538.34;4977833;28;20054;-66
2023/03/04 09:12:21;;;;;;;9.50;1.60;;;;;;;7.12;100.00;102533.13;4964587;28;20545;-67
2023/03/04 09:14:47;;;;;;;4.65;1.20;;;;;;;7.17;100.00;102533.72;4970009;28;20054;-67
2023/03/04 09:17:33;;;;;;;4.20;1.30;;;;;;;7.20;100.00;102533.56;4958237;28;20047;-67
2023/03/04 09:20:00;;;;;;;8.57;1.40;;;;;;;7.21;100.00;102524.78;4972880;28;20050;-67
2023/03/04 09:22:29;;;;;;;8.07;1.80;;;;;;;7.24;100.00;102531.63;4966297;28;20058;-66
2023/03/04 09:24:56;;;;;;;10.63;1.45;;;;;;;7.21;100.00;102523.97;4966892;28;20173;-68
2023/03/04 09:27:23;;;;;;;3.42;1.33;;;;;;;7.22;100.00;102525.66;4962776;28;20062;-66
2023/03/04 09:29:49;;;;;;;5.07;1.25;;;;;;;7.19;100.00;102531.03;4974524;28;20102;-66
2023/03/04 09:32:16;;;;;;;5.60;1.50;;;;;;;7.18;100.00;102529.34;4975267;28;20064;-67
2023/03/04 09:34:42;;;;;;;6.38;1.40;;;;;;;7.25;100.00;102520.25;4957906;28;20469;-68
2023/03/04 09:37:09;;;;;;;5.45;1.42;;;;;;;7.33;100.00;102515.44;4975610;28;20082;-68
2023/03/04 09:39:35;;;;;;;5.47;1.90;;;;;;;7.36;100.00;102517.06;4969059;28;20051;-68
2023/03/04 09:42:05;;;;;;;9.43;1.95;;;;;;;7.48;100.00;102509.41;4971194;28;20051;-68
2023/03/04 09:44:41;;;;;;;5.93;1.27;;;;;;;7.54;100.00;102521.28;4969573;28;20263;-68
2023/03/04 09:47:26;;;;;;;5.80;1.77;;;;;;;7.55;100.00;102515.13;4973330;28;20055;-68
2023/03/04 09:50:00;;;;;;;4.20;2.00;;;;;;;7.61;100.00;102511.34;4963223;28;20050;-68
2023/03/04 09:52:56;;;;;;;4.00;1.45;;;;;;;7.56;100.00;102510.75;4968190;28;20082;-69
2023/03/04 09:55:38;;;;;;;2.72;1.40;;;;;;;7.45;100.00;102506.13;4968240;28;20117;-69
2023/03/04 09:58:41;;;;;;;6.53;1.40;;;;;;;7.59;100.00;102507.97;4963585;28;20051;-69
2023/03/04 10:01:19;;;;;;;5.35;1.33;;;;;;;7.53;100.00;102507.38;4971355;28;20136;-68
2023/03/04 10:03:52;;;;;;;2.65;1.00;;;;;;;7.55;100.00;102506.44;4983377;28;20050;-68
2023/03/04 10:06:21;;;;;;;3.85;1.40;;;;;;;7.59;100.00;102502.75;4982105;28;20105;-68
2023/03/04 10:08:57;;;;;;;3.35;1.17;;;;;;;7.65;100.00;102495.41;4968666;28;20117;-68
2023/03/04 10:11:44;;;;;;;3.28;1.20;;;;;;;7.74;100.00;102504.47;4974363;28;20495;-68
2023/03/04 10:14:28;;;;;;;3.72;1.00;;;;;;;7.82;100.00;102491.00;4975756;28;20061;-68
2023/03/04 10:17:15;;;;;;;3.08;1.23;;;;;;;7.97;100.00;102492.72;4973268;28;20141;-68
2023/03/04 10:20:00;;;;;;;3.70;1.02;;;;;;;8.05;100.00;102500.13;4952828;28;20065;-68
2023/03/04 10:22:34;;;;;;;4.72;1.10;;;;;;;8.26;100.00;102495.44;4961963;28;20054;-68
2023/03/04 10:25:15;;;;;;;2.83;1.10;;;;;;;8.29;100.00;102488.25;4960213;28;20054;-67
2023/03/04 10:27:47;;;;;;;3.28;1.20;;;;;;;8.29;100.00;102487.38;4965604;28;20058;-67
2023/03/04 10:30:43;;;;;;;2.25;1.05;;;;;;;8.40;100.00;102494.59;4967555;28;20063;-68
2023/03/04 10:33:16;;;;;;;3.17;1.08;;;;;;;8.37;100.00;102485.19;4972205;28;20158;-68
2023/03/04 10:35:47;;;;;;;4.75;1.70;;;;;;;8.36;100.00;102483.47;4975910;28;20065;-68
2023/03/04 10:38:14;;;;;;;3.58;1.63;;;;;;;8.18;100.00;102484.59;4980968;28;20134;-68
2023/03/04 10:40:41;;;;;;;6.78;1.88;;;;;;;8.19;100.00;102484.47;4969308;28;20042;-68
2023/03/04 10:43:15;;;;;;;3.72;1.60;;;;;;;8.20;100.00;102483.56;4961443;28;20143;-68
2023/03/04 10:45:43;;;;;;;4.72;1.23;;;;;;;8.10;100.00;102479.81;4969385;28;20130;-68
2023/03/04 10:48:40;;;;;;;3.72;1.30;;;;;;;8.13;100.00;102477.00;4962437;28;20063;-68
2023/03/04 10:51:20;;;;;;;3.45;0.88;;;;;;;8.11;100.00;102478.84;4953733;28;20063;-68
2023/03/04 10:54:04;;;;;;;2.97;1.20;;;;;;;8.10;100.00;102471.97;4952658;28;20053;-69
2023/03/04 10:56:44;;;;;;;2.20;1.00;;;;;;;8.27;100.00;102468.34;4962848;28;20046;-68
2023/03/04 10:59:41;;;;;;;3.08;0.85;;;;;;;8.38;100.00;102462.47;4956451;28;20057;-68
2023/03/04 11:02:16;;;;;;;2.38;0.75;;;;;;;8.45;100.00;102459.44;4967554;28;20070;-69
2023/03/04 11:04:49;;;;;;;2.05;0.80;;;;;;;8.52;100.00;102457.28;4960096;28;20055;-70
2023/03/04 11:07:15;;;;;;;4.53;1.30;;;;;;;8.46;100.00;102452.44;4960586;28;20165;-68
2023/03/04 11:09:43;;;;;;;4.22;1.00;;;;;;;8.45;100.00;102462.06;4975218;28;20056;-69
2023/03/04 11:12:16;;;;;;;3.25;0.90;;;;;;;8.52;100.00;102458.13;4963890;28;20566;-67
2023/03/04 11:14:48;;;;;;;1.98;1.10;;;;;;;8.67;100.00;102460.75;4974323;28;20054;-67
2023/03/04 11:17:25;;;;;;;2.75;0.95;;;;;;;8.59;100.00;102457.78;4950752;28;20065;-67
2023/03/04 11:19:56;;;;;;;5.70;1.10;;;;;;;8.59;100.00;102456.00;4964806;28;20047;-68
2023/03/04 11:22:26;;;;;;;1.55;0.70;;;;;;;8.53;100.00;102451.13;4965600;28;20064;-67
2023/03/04 11:25:02;;;;;;;2.85;1.00;;;;;;;8.59;100.00;102448.13;4966452;28;20165;-68
2023/03/04 11:27:39;;;;;;;1.33;0.77;;;;;;;8.65;100.00;102453.00;4959941;28;20055;-68
2023/03/04 11:30:27;;;;;;;0.68;0.47;;;;;;;8.69;100.00;102445.81;4975845;28;20065;-67
2023/03/04 11:33:04;;;;;;;3.15;0.70;;;;;;;8.73;100.00;102446.47;4956863;28;20065;-68
2023/03/04 11:35:42;;;;;;;0.70;0.70;;;;;;;8.83;100.00;102444.94;4965374;28;20430;-67